Junks, Louisiana
Current Conditions -  °F | °C
As of 8:55 AM on Sunday 23 Nov 2014 (Local Time) from KHEZ Reporting Station
Broken Clouds Broken Clouds  
Wind Chill: 64°   Ceiling: 3200
Heat Index: 64°   Visibility: 8mi
Dew Point: 61°   Wind: 15mph
Humidity: 88%   Direction: 180°S
Pressure: 29.62"   Gusts: 24mph
Location:  31.828°N, 91.4836°W
Report Text: KHEZ 231455Z AUTO 18013G21KT 8SM FEW010 SCT023 BKN032 18/16 A2962 RMK AO1 P0001 60007 57030
Loading
Personal Weather Stations






























Interactive Weather Map New forecast layout! Learn more

10-Day Weather Forecast

Advertisements
Track Severe Weather on mobile